sensor_id;sensor_type;location;lat;lon;timestamp;P1;durP1;ratioP1;P2;durP2;ratioP2
68398;SDS011;56258;52.196;13.868;2023-02-11T00:00:13;9.57;;;3.70;;
68398;SDS011;56258;52.196;13.868;2023-02-11T00:02:40;9.43;;;4.10;;
68398;SDS011;56258;52.196;13.868;2023-02-11T00:05:07;9.40;;;3.78;;
68398;SDS011;56258;52.196;13.868;2023-02-11T00:07:34;10.85;;;4.28;;
68398;SDS011;56258;52.196;13.868;2023-02-11T00:10:01;9.65;;;3.90;;
68398;SDS011;56258;52.196;13.868;2023-02-11T00:12:29;10.02;;;4.43;;
68398;SDS011;56258;52.196;13.868;2023-02-11T00:14:56;10.17;;;3.90;;
68398;SDS011;56258;52.196;13.868;2023-02-11T00:17:22;11.02;;;4.00;;
68398;SDS011;56258;52.196;13.868;2023-02-11T00:19:52;9.68;;;4.03;;
68398;SDS011;56258;52.196;13.868;2023-02-11T00:22:18;9.00;;;3.92;;
68398;SDS011;56258;52.196;13.868;2023-02-11T00:24:45;10.00;;;4.30;;
68398;SDS011;56258;52.196;13.868;2023-02-11T00:27:12;10.53;;;4.30;;
68398;SDS011;56258;52.196;13.868;2023-02-11T00:29:39;9.27;;;3.92;;
68398;SDS011;56258;52.196;13.868;2023-02-11T00:32:05;10.02;;;4.20;;
68398;SDS011;56258;52.196;13.868;2023-02-11T00:34:34;9.85;;;4.30;;
68398;SDS011;56258;52.196;13.868;2023-02-11T00:37:02;10.05;;;4.22;;
68398;SDS011;56258;52.196;13.868;2023-02-11T00:39:29;10.60;;;4.57;;
68398;SDS011;56258;52.196;13.868;2023-02-11T00:41:56;10.60;;;4.55;;
68398;SDS011;56258;52.196;13.868;2023-02-11T00:44:24;10.50;;;4.43;;
68398;SDS011;56258;52.196;13.868;2023-02-11T00:46:51;10.23;;;4.25;;
68398;SDS011;56258;52.196;13.868;2023-02-11T00:49:17;10.23;;;4.57;;
68398;SDS011;56258;52.196;13.868;2023-02-11T00:51:44;9.67;;;4.30;;
68398;SDS011;56258;52.196;13.868;2023-02-11T00:54:11;10.55;;;4.55;;
68398;SDS011;56258;52.196;13.868;2023-02-11T00:56:38;10.82;;;4.57;;
68398;SDS011;56258;52.196;13.868;2023-02-11T00:59:04;9.77;;;4.38;;
68398;SDS011;56258;52.196;13.868;2023-02-11T01:01:31;11.43;;;5.05;;
68398;SDS011;56258;52.196;13.868;2023-02-11T01:03:58;10.93;;;4.47;;
68398;SDS011;56258;52.196;13.868;2023-02-11T01:06:24;10.55;;;4.30;;
68398;SDS011;56258;52.196;13.868;2023-02-11T01:08:51;9.75;;;4.32;;
68398;SDS011;56258;52.196;13.868;2023-02-11T01:11:18;9.77;;;4.32;;
68398;SDS011;56258;52.196;13.868;2023-02-11T01:13:47;10.52;;;4.68;;
68398;SDS011;56258;52.196;13.868;2023-02-11T01:16:15;10.13;;;4.50;;
68398;SDS011;56258;52.196;13.868;2023-02-11T01:18:42;9.82;;;4.28;;
68398;SDS011;56258;52.196;13.868;2023-02-11T01:21:11;11.10;;;4.93;;
68398;SDS011;56258;52.196;13.868;2023-02-11T01:23:38;11.57;;;4.47;;
68398;SDS011;56258;52.196;13.868;2023-02-11T01:26:05;10.00;;;4.20;;
68398;SDS011;56258;52.196;13.868;2023-02-11T01:28:32;9.73;;;4.30;;
68398;SDS011;56258;52.196;13.868;2023-02-11T01:30:59;10.57;;;4.45;;
68398;SDS011;56258;52.196;13.868;2023-02-11T01:33:26;10.13;;;4.10;;
68398;SDS011;56258;52.196;13.868;2023-02-11T01:35:54;10.73;;;4.60;;
68398;SDS011;56258;52.196;13.868;2023-02-11T01:38:22;9.73;;;4.20;;
68398;SDS011;56258;52.196;13.868;2023-02-11T01:40:51;11.03;;;4.77;;
68398;SDS011;56258;52.196;13.868;2023-02-11T01:43:20;10.30;;;3.80;;
68398;SDS011;56258;52.196;13.868;2023-02-11T01:48:22;9.60;;;4.05;;
68398;SDS011;56258;52.196;13.868;2023-02-11T01:50:55;10.43;;;4.30;;
68398;SDS011;56258;52.196;13.868;2023-02-11T01:53:29;9.63;;;4.20;;
68398;SDS011;56258;52.196;13.868;2023-02-11T01:56:17;10.43;;;4.60;;
68398;SDS011;56258;52.196;13.868;2023-02-11T01:59:06;9.60;;;3.90;;
68398;SDS011;56258;52.196;13.868;2023-02-11T02:01:38;10.20;;;4.47;;
68398;SDS011;56258;52.196;13.868;2023-02-11T02:04:09;10.15;;;4.50;;
68398;SDS011;56258;52.196;13.868;2023-02-11T02:06:42;9.87;;;3.90;;
68398;SDS011;56258;52.196;13.868;2023-02-11T02:09:22;9.50;;;4.00;;
68398;SDS011;56258;52.196;13.868;2023-02-11T02:11:53;10.35;;;4.25;;
68398;SDS011;56258;52.196;13.868;2023-02-11T02:14:19;9.63;;;3.92;;
68398;SDS011;56258;52.196;13.868;2023-02-11T02:16:46;10.68;;;3.90;;
68398;SDS011;56258;52.196;13.868;2023-02-11T02:28:51;9.80;;;3.90;;
68398;SDS011;56258;52.196;13.868;2023-02-11T02:34:18;10.87;;;4.43;;
68398;SDS011;56258;52.196;13.868;2023-02-11T02:37:12;9.57;;;4.10;;
68398;SDS011;56258;52.196;13.868;2023-02-11T02:39:47;9.35;;;4.03;;
68398;SDS011;56258;52.196;13.868;2023-02-11T02:42:15;9.43;;;4.18;;
68398;SDS011;56258;52.196;13.868;2023-02-11T02:44:47;9.68;;;4.50;;
68398;SDS011;56258;52.196;13.868;2023-02-11T02:47:15;10.23;;;4.70;;
68398;SDS011;56258;52.196;13.868;2023-02-11T02:49:41;9.40;;;4.28;;
68398;SDS011;56258;52.196;13.868;2023-02-11T02:57:38;9.32;;;4.28;;
68398;SDS011;56258;52.196;13.868;2023-02-11T03:00:40;9.03;;;4.20;;
68398;SDS011;56258;52.196;13.868;2023-02-11T03:03:19;9.75;;;4.22;;
68398;SDS011;56258;52.196;13.868;2023-02-11T03:06:20;10.80;;;4.55;;
68398;SDS011;56258;52.196;13.868;2023-02-11T03:08:49;11.65;;;4.50;;
68398;SDS011;56258;52.196;13.868;2023-02-11T03:11:25;10.73;;;4.53;;
68398;SDS011;56258;52.196;13.868;2023-02-11T03:13:54;10.27;;;4.50;;
68398;SDS011;56258;52.196;13.868;2023-02-11T03:16:23;9.10;;;4.05;;
68398;SDS011;56258;52.196;13.868;2023-02-11T03:18:55;10.43;;;4.70;;
68398;SDS011;56258;52.196;13.868;2023-02-11T03:21:30;10.50;;;4.38;;
68398;SDS011;56258;52.196;13.868;2023-02-11T03:24:02;9.85;;;4.40;;
68398;SDS011;56258;52.196;13.868;2023-02-11T03:26:37;9.67;;;4.37;;
68398;SDS011;56258;52.196;13.868;2023-02-11T03:32:24;10.23;;;4.30;;
68398;SDS011;56258;52.196;13.868;2023-02-11T03:40:04;8.93;;;4.17;;
68398;SDS011;56258;52.196;13.868;2023-02-11T03:42:33;10.40;;;4.03;;
68398;SDS011;56258;52.196;13.868;2023-02-11T03:45:07;9.32;;;4.10;;
68398;SDS011;56258;52.196;13.868;2023-02-11T03:47:37;9.48;;;4.25;;
68398;SDS011;56258;52.196;13.868;2023-02-11T03:50:08;9.82;;;4.53;;
68398;SDS011;56258;52.196;13.868;2023-02-11T03:52:37;9.33;;;3.90;;
68398;SDS011;56258;52.196;13.868;2023-02-11T03:55:09;10.02;;;4.53;;
68398;SDS011;56258;52.196;13.868;2023-02-11T03:57:38;9.57;;;4.05;;
68398;SDS011;56258;52.196;13.868;2023-02-11T04:00:05;8.93;;;4.10;;
68398;SDS011;56258;52.196;13.868;2023-02-11T04:02:34;9.32;;;4.10;;
68398;SDS011;56258;52.196;13.868;2023-02-11T04:05:03;8.73;;;3.77;;
68398;SDS011;56258;52.196;13.868;2023-02-11T04:07:31;9.55;;;4.13;;
68398;SDS011;56258;52.196;13.868;2023-02-11T04:09:58;8.50;;;4.18;;
68398;SDS011;56258;52.196;13.868;2023-02-11T04:12:25;10.02;;;4.28;;
68398;SDS011;56258;52.196;13.868;2023-02-11T04:14:52;8.57;;;3.95;;
68398;SDS011;56258;52.196;13.868;2023-02-11T04:17:18;8.90;;;4.07;;
68398;SDS011;56258;52.196;13.868;2023-02-11T04:19:45;9.32;;;4.13;;
68398;SDS011;56258;52.196;13.868;2023-02-11T04:22:12;8.63;;;3.90;;
68398;SDS011;56258;52.196;13.868;2023-02-11T04:24:39;9.10;;;3.85;;
68398;SDS011;56258;52.196;13.868;2023-02-11T04:27:05;8.05;;;3.70;;
68398;SDS011;56258;52.196;13.868;2023-02-11T04:29:32;8.93;;;3.90;;
68398;SDS011;56258;52.196;13.868;2023-02-11T04:31:59;8.48;;;3.85;;
68398;SDS011;56258;52.196;13.868;2023-02-11T04:34:25;8.80;;;3.83;;
68398;SDS011;56258;52.196;13.868;2023-02-11T04:36:52;9.35;;;4.00;;
68398;SDS011;56258;52.196;13.868;2023-02-11T04:39:19;8.55;;;3.80;;
68398;SDS011;56258;52.196;13.868;2023-02-11T04:41:45;9.30;;;4.10;;
68398;SDS011;56258;52.196;13.868;2023-02-11T04:44:12;8.60;;;4.15;;
68398;SDS011;56258;52.196;13.868;2023-02-11T04:46:39;9.00;;;4.30;;
68398;SDS011;56258;52.196;13.868;2023-02-11T04:49:05;9.00;;;4.10;;
68398;SDS011;56258;52.196;13.868;2023-02-11T04:51:32;9.50;;;3.83;;
68398;SDS011;56258;52.196;13.868;2023-02-11T04:53:59;8.60;;;3.70;;
68398;SDS011;56258;52.196;13.868;2023-02-11T04:56:25;8.90;;;4.20;;
68398;SDS011;56258;52.196;13.868;2023-02-11T04:58:52;9.98;;;3.90;;
68398;SDS011;56258;52.196;13.868;2023-02-11T05:01:18;9.10;;;3.85;;
68398;SDS011;56258;52.196;13.868;2023-02-11T05:03:45;9.85;;;3.95;;
68398;SDS011;56258;52.196;13.868;2023-02-11T05:06:12;9.47;;;3.73;;
68398;SDS011;56258;52.196;13.868;2023-02-11T05:08:39;9.82;;;4.32;;
68398;SDS011;56258;52.196;13.868;2023-02-11T05:11:06;9.23;;;4.13;;
68398;SDS011;56258;52.196;13.868;2023-02-11T05:13:33;10.40;;;4.05;;
68398;SDS011;56258;52.196;13.868;2023-02-11T05:15:59;11.48;;;4.55;;
68398;SDS011;56258;52.196;13.868;2023-02-11T05:18:26;10.00;;;4.10;;
68398;SDS011;56258;52.196;13.868;2023-02-11T05:20:53;9.50;;;4.22;;
68398;SDS011;56258;52.196;13.868;2023-02-11T05:23:19;9.18;;;4.45;;
68398;SDS011;56258;52.196;13.868;2023-02-11T05:25:46;10.48;;;4.60;;
68398;SDS011;56258;52.196;13.868;2023-02-11T05:28:13;10.68;;;4.93;;
68398;SDS011;56258;52.196;13.868;2023-02-11T05:30:39;9.90;;;4.33;;
68398;SDS011;56258;52.196;13.868;2023-02-11T05:33:06;10.55;;;4.80;;
68398;SDS011;56258;52.196;13.868;2023-02-11T05:35:33;11.25;;;5.10;;
68398;SDS011;56258;52.196;13.868;2023-02-11T05:37:59;10.60;;;4.40;;
68398;SDS011;56258;52.196;13.868;2023-02-11T05:40:26;10.23;;;4.80;;
68398;SDS011;56258;52.196;13.868;2023-02-11T05:42:52;10.07;;;4.33;;
68398;SDS011;56258;52.196;13.868;2023-02-11T05:45:19;9.85;;;4.55;;
68398;SDS011;56258;52.196;13.868;2023-02-11T05:47:46;10.48;;;5.10;;
68398;SDS011;56258;52.196;13.868;2023-02-11T05:50:12;10.52;;;4.50;;
68398;SDS011;56258;52.196;13.868;2023-02-11T05:52:39;9.95;;;4.65;;
68398;SDS011;56258;52.196;13.868;2023-02-11T05:55:09;10.97;;;4.97;;
68398;SDS011;56258;52.196;13.868;2023-02-11T05:57:36;9.90;;;4.72;;
68398;SDS011;56258;52.196;13.868;2023-02-11T06:00:03;10.20;;;4.82;;
68398;SDS011;56258;52.196;13.868;2023-02-11T06:02:31;9.80;;;4.57;;
68398;SDS011;56258;52.196;13.868;2023-02-11T06:04:58;10.55;;;4.90;;
68398;SDS011;56258;52.196;13.868;2023-02-11T06:07:24;10.60;;;4.63;;
68398;SDS011;56258;52.196;13.868;2023-02-11T06:09:51;11.60;;;5.10;;
68398;SDS011;56258;52.196;13.868;2023-02-11T06:12:18;10.45;;;5.30;;
68398;SDS011;56258;52.196;13.868;2023-02-11T06:14:44;10.20;;;4.60;;
68398;SDS011;56258;52.196;13.868;2023-02-11T06:17:11;9.75;;;4.32;;
68398;SDS011;56258;52.196;13.868;2023-02-11T06:19:40;11.17;;;5.03;;
68398;SDS011;56258;52.196;13.868;2023-02-11T06:22:07;10.32;;;5.07;;
68398;SDS011;56258;52.196;13.868;2023-02-11T06:24:34;10.27;;;5.03;;
68398;SDS011;56258;52.196;13.868;2023-02-11T06:27:22;11.18;;;4.97;;
68398;SDS011;56258;52.196;13.868;2023-02-11T06:29:49;10.55;;;4.93;;
68398;SDS011;56258;52.196;13.868;2023-02-11T06:32:18;10.87;;;4.87;;
68398;SDS011;56258;52.196;13.868;2023-02-11T06:35:05;10.80;;;5.10;;
68398;SDS011;56258;52.196;13.868;2023-02-11T06:37:33;11.57;;;5.78;;
68398;SDS011;56258;52.196;13.868;2023-02-11T06:40:00;10.23;;;4.72;;
68398;SDS011;56258;52.196;13.868;2023-02-11T06:42:26;10.52;;;5.32;;
68398;SDS011;56258;52.196;13.868;2023-02-11T06:44:53;12.37;;;5.33;;
68398;SDS011;56258;52.196;13.868;2023-02-11T06:47:19;10.43;;;4.82;;
68398;SDS011;56258;52.196;13.868;2023-02-11T06:49:46;12.45;;;5.22;;
68398;SDS011;56258;52.196;13.868;2023-02-11T06:52:13;13.38;;;5.35;;
68398;SDS011;56258;52.196;13.868;2023-02-11T06:54:40;12.98;;;5.28;;
68398;SDS011;56258;52.196;13.868;2023-02-11T06:57:06;10.50;;;5.00;;
68398;SDS011;56258;52.196;13.868;2023-02-11T06:59:33;10.70;;;4.80;;
68398;SDS011;56258;52.196;13.868;2023-02-11T07:01:59;11.32;;;4.90;;
68398;SDS011;56258;52.196;13.868;2023-02-11T07:04:26;10.73;;;5.00;;
68398;SDS011;56258;52.196;13.868;2023-02-11T07:06:53;10.55;;;4.65;;
68398;SDS011;56258;52.196;13.868;2023-02-11T07:09:19;11.63;;;5.33;;
68398;SDS011;56258;52.196;13.868;2023-02-11T07:11:46;11.25;;;5.10;;
68398;SDS011;56258;52.196;13.868;2023-02-11T07:14:13;11.40;;;5.20;;
68398;SDS011;56258;52.196;13.868;2023-02-11T07:16:39;11.68;;;5.05;;
68398;SDS011;56258;52.196;13.868;2023-02-11T07:19:06;10.60;;;5.03;;
68398;SDS011;56258;52.196;13.868;2023-02-11T07:21:33;10.33;;;4.60;;
68398;SDS011;56258;52.196;13.868;2023-02-11T07:24:00;11.70;;;4.85;;
68398;SDS011;56258;52.196;13.868;2023-02-11T07:26:27;12.82;;;5.50;;
68398;SDS011;56258;52.196;13.868;2023-02-11T07:28:54;11.75;;;5.15;;
68398;SDS011;56258;52.196;13.868;2023-02-11T07:31:24;12.60;;;5.47;;
68398;SDS011;56258;52.196;13.868;2023-02-11T07:33:54;10.57;;;5.07;;
68398;SDS011;56258;52.196;13.868;2023-02-11T07:36:22;13.35;;;5.82;;
68398;SDS011;56258;52.196;13.868;2023-02-11T07:38:49;11.98;;;5.35;;
68398;SDS011;56258;52.196;13.868;2023-02-11T07:41:17;10.05;;;4.90;;
68398;SDS011;56258;52.196;13.868;2023-02-11T07:43:46;12.20;;;5.50;;
68398;SDS011;56258;52.196;13.868;2023-02-11T07:46:14;11.10;;;4.97;;
68398;SDS011;56258;52.196;13.868;2023-02-11T07:48:43;11.55;;;5.25;;
68398;SDS011;56258;52.196;13.868;2023-02-11T07:51:11;11.55;;;5.18;;
68398;SDS011;56258;52.196;13.868;2023-02-11T07:53:40;12.70;;;5.60;;
68398;SDS011;56258;52.196;13.868;2023-02-11T07:56:07;10.52;;;5.20;;
68398;SDS011;56258;52.196;13.868;2023-02-11T07:58:35;11.10;;;5.67;;
68398;SDS011;56258;52.196;13.868;2023-02-11T08:01:06;12.23;;;5.32;;
68398;SDS011;56258;52.196;13.868;2023-02-11T08:03:34;10.75;;;5.03;;
68398;SDS011;56258;52.196;13.868;2023-02-11T08:06:02;11.15;;;4.80;;
68398;SDS011;56258;52.196;13.868;2023-02-11T08:08:30;11.25;;;5.07;;
68398;SDS011;56258;52.196;13.868;2023-02-11T08:10:57;11.67;;;5.50;;
68398;SDS011;56258;52.196;13.868;2023-02-11T08:13:23;11.88;;;5.43;;
68398;SDS011;56258;52.196;13.868;2023-02-11T08:15:52;11.93;;;5.82;;
68398;SDS011;56258;52.196;13.868;2023-02-11T08:18:18;11.80;;;5.32;;
68398;SDS011;56258;52.196;13.868;2023-02-11T08:20:45;13.88;;;5.78;;
68398;SDS011;56258;52.196;13.868;2023-02-11T08:23:12;12.30;;;5.70;;
68398;SDS011;56258;52.196;13.868;2023-02-11T08:25:38;11.98;;;6.20;;
68398;SDS011;56258;52.196;13.868;2023-02-11T08:28:05;11.75;;;5.60;;
68398;SDS011;56258;52.196;13.868;2023-02-11T08:30:32;11.68;;;5.43;;
68398;SDS011;56258;52.196;13.868;2023-02-11T08:32:58;12.07;;;5.32;;
68398;SDS011;56258;52.196;13.868;2023-02-11T08:35:25;12.77;;;5.43;;
68398;SDS011;56258;52.196;13.868;2023-02-11T08:37:52;12.05;;;5.32;;
68398;SDS011;56258;52.196;13.868;2023-02-11T08:40:18;12.48;;;5.20;;
68398;SDS011;56258;52.196;13.868;2023-02-11T08:42:45;12.95;;;5.38;;
68398;SDS011;56258;52.196;13.868;2023-02-11T08:45:12;12.57;;;5.63;;
68398;SDS011;56258;52.196;13.868;2023-02-11T08:47:39;12.63;;;5.43;;
68398;SDS011;56258;52.196;13.868;2023-02-11T08:50:05;12.20;;;5.18;;
68398;SDS011;56258;52.196;13.868;2023-02-11T08:52:32;11.30;;;5.60;;
68398;SDS011;56258;52.196;13.868;2023-02-11T08:54:59;13.38;;;5.75;;
68398;SDS011;56258;52.196;13.868;2023-02-11T08:57:25;12.80;;;5.80;;
68398;SDS011;56258;52.196;13.868;2023-02-11T08:59:52;11.13;;;5.20;;
68398;SDS011;56258;52.196;13.868;2023-02-11T09:02:18;11.20;;;5.05;;
68398;SDS011;56258;52.196;13.868;2023-02-11T09:04:45;10.85;;;5.30;;
68398;SDS011;56258;52.196;13.868;2023-02-11T09:07:12;10.68;;;5.30;;
68398;SDS011;56258;52.196;13.868;2023-02-11T09:09:39;11.45;;;5.28;;
68398;SDS011;56258;52.196;13.868;2023-02-11T09:12:05;11.90;;;5.60;;
68398;SDS011;56258;52.196;13.868;2023-02-11T09:14:32;12.18;;;5.47;;
68398;SDS011;56258;52.196;13.868;2023-02-11T09:16:59;10.60;;;4.85;;
68398;SDS011;56258;52.196;13.868;2023-02-11T09:19:25;11.02;;;5.28;;
68398;SDS011;56258;52.196;13.868;2023-02-11T09:21:52;11.20;;;5.45;;
68398;SDS011;56258;52.196;13.868;2023-02-11T09:24:19;9.30;;;4.33;;
68398;SDS011;56258;52.196;13.868;2023-02-11T09:26:45;11.35;;;5.07;;
68398;SDS011;56258;52.196;13.868;2023-02-11T09:29:12;11.85;;;5.50;;
68398;SDS011;56258;52.196;13.868;2023-02-11T09:31:39;10.60;;;5.05;;
68398;SDS011;56258;52.196;13.868;2023-02-11T09:34:06;12.20;;;5.55;;
68398;SDS011;56258;52.196;13.868;2023-02-11T09:36:35;11.07;;;5.10;;
68398;SDS011;56258;52.196;13.868;2023-02-11T09:39:05;12.45;;;5.32;;
68398;SDS011;56258;52.196;13.868;2023-02-11T09:41:44;11.25;;;5.15;;
68398;SDS011;56258;52.196;13.868;2023-02-11T09:44:19;12.32;;;5.55;;
68398;SDS011;56258;52.196;13.868;2023-02-11T09:47:17;12.07;;;5.20;;
68398;SDS011;56258;52.196;13.868;2023-02-11T09:49:38;10.93;;;4.77;;
68398;SDS011;56258;52.196;13.868;2023-02-11T09:54:55;12.07;;;5.10;;
68398;SDS011;56258;52.196;13.868;2023-02-11T09:57:33;10.93;;;4.90;;
68398;SDS011;56258;52.196;13.868;2023-02-11T10:00:06;11.93;;;5.40;;
68398;SDS011;56258;52.196;13.868;2023-02-11T10:08:16;11.85;;;5.38;;
68398;SDS011;56258;52.196;13.868;2023-02-11T10:10:52;11.07;;;4.53;;
68398;SDS011;56258;52.196;13.868;2023-02-11T10:16:28;10.77;;;4.63;;
68398;SDS011;56258;52.196;13.868;2023-02-11T10:22:47;11.15;;;4.80;;
68398;SDS011;56258;52.196;13.868;2023-02-11T10:24:58;9.65;;;4.45;;
68398;SDS011;56258;52.196;13.868;2023-02-11T10:27:34;10.85;;;4.70;;
68398;SDS011;56258;52.196;13.868;2023-02-11T10:30:03;10.33;;;4.67;;
68398;SDS011;56258;52.196;13.868;2023-02-11T10:32:48;11.38;;;4.60;;
68398;SDS011;56258;52.196;13.868;2023-02-11T10:35:21;10.98;;;4.50;;
68398;SDS011;56258;52.196;13.868;2023-02-11T10:37:49;9.30;;;4.43;;
68398;SDS011;56258;52.196;13.868;2023-02-11T10:40:17;10.00;;;4.65;;
68398;SDS011;56258;52.196;13.868;2023-02-11T10:42:50;9.63;;;4.07;;
68398;SDS011;56258;52.196;13.868;2023-02-11T10:45:26;10.80;;;4.57;;
68398;SDS011;56258;52.196;13.868;2023-02-11T10:47:57;11.40;;;4.55;;
68398;SDS011;56258;52.196;13.868;2023-02-11T10:50:25;9.68;;;3.97;;
68398;SDS011;56258;52.196;13.868;2023-02-11T10:53:28;10.23;;;4.57;;
68398;SDS011;56258;52.196;13.868;2023-02-11T10:55:52;9.97;;;4.47;;
68398;SDS011;56258;52.196;13.868;2023-02-11T10:58:22;10.75;;;4.32;;
68398;SDS011;56258;52.196;13.868;2023-02-11T11:00:54;9.45;;;4.07;;
68398;SDS011;56258;52.196;13.868;2023-02-11T11:03:22;9.00;;;3.70;;
68398;SDS011;56258;52.196;13.868;2023-02-11T11:05:52;8.35;;;3.58;;
68398;SDS011;56258;52.196;13.868;2023-02-11T11:08:43;9.40;;;4.07;;
68398;SDS011;56258;52.196;13.868;2023-02-11T11:11:18;9.30;;;3.83;;
68398;SDS011;56258;52.196;13.868;2023-02-11T11:16:31;9.18;;;4.43;;
68398;SDS011;56258;52.196;13.868;2023-02-11T11:27:22;9.07;;;4.07;;
68398;SDS011;56258;52.196;13.868;2023-02-11T11:29:52;9.82;;;3.85;;
68398;SDS011;56258;52.196;13.868;2023-02-11T11:32:24;8.85;;;3.58;;
68398;SDS011;56258;52.196;13.868;2023-02-11T11:34:55;8.97;;;3.87;;
68398;SDS011;56258;52.196;13.868;2023-02-11T11:37:28;8.70;;;3.60;;
68398;SDS011;56258;52.196;13.868;2023-02-11T11:42:38;8.68;;;3.60;;
68398;SDS011;56258;52.196;13.868;2023-02-11T11:48:21;7.43;;;3.07;;
68398;SDS011;56258;52.196;13.868;2023-02-11T11:50:39;9.50;;;3.75;;
68398;SDS011;56258;52.196;13.868;2023-02-11T11:53:11;8.80;;;3.88;;
68398;SDS011;56258;52.196;13.868;2023-02-11T11:55:47;8.65;;;3.60;;
68398;SDS011;56258;52.196;13.868;2023-02-11T11:58:33;8.98;;;3.30;;
68398;SDS011;56258;52.196;13.868;2023-02-11T12:09:22;8.23;;;3.40;;
68398;SDS011;56258;52.196;13.868;2023-02-11T12:12:03;8.30;;;3.30;;
68398;SDS011;56258;52.196;13.868;2023-02-11T12:25:46;9.73;;;3.33;;
68398;SDS011;56258;52.196;13.868;2023-02-11T12:28:36;8.97;;;3.20;;
68398;SDS011;56258;52.196;13.868;2023-02-11T12:31:31;9.00;;;3.08;;
68398;SDS011;56258;52.196;13.868;2023-02-11T12:39:41;8.35;;;3.30;;
68398;SDS011;56258;52.196;13.868;2023-02-11T12:42:20;7.87;;;3.00;;
68398;SDS011;56258;52.196;13.868;2023-02-11T12:50:13;7.15;;;2.67;;
68398;SDS011;56258;52.196;13.868;2023-02-11T12:55:42;7.40;;;2.77;;
68398;SDS011;56258;52.196;13.868;2023-02-11T12:58:14;7.75;;;2.70;;
68398;SDS011;56258;52.196;13.868;2023-02-11T13:00:50;7.50;;;3.10;;
68398;SDS011;56258;52.196;13.868;2023-02-11T13:03:29;6.93;;;2.85;;
68398;SDS011;56258;52.196;13.868;2023-02-11T13:06:07;7.82;;;2.78;;
68398;SDS011;56258;52.196;13.868;2023-02-11T13:08:51;7.80;;;2.80;;
68398;SDS011;56258;52.196;13.868;2023-02-11T13:11:28;6.95;;;2.50;;
68398;SDS011;56258;52.196;13.868;2023-02-11T13:14:04;7.28;;;2.78;;
68398;SDS011;56258;52.196;13.868;2023-02-11T13:16:43;6.90;;;2.90;;
68398;SDS011;56258;52.196;13.868;2023-02-11T13:30:13;6.95;;;2.47;;
68398;SDS011;56258;52.196;13.868;2023-02-11T13:37:59;6.95;;;2.70;;
68398;SDS011;56258;52.196;13.868;2023-02-11T13:40:43;7.35;;;2.70;;
68398;SDS011;56258;52.196;13.868;2023-02-11T13:43:23;7.15;;;2.63;;
68398;SDS011;56258;52.196;13.868;2023-02-11T13:46:04;7.13;;;2.40;;
68398;SDS011;56258;52.196;13.868;2023-02-11T13:48:36;7.10;;;2.50;;
68398;SDS011;56258;52.196;13.868;2023-02-11T13:51:06;6.93;;;2.47;;
68398;SDS011;56258;52.196;13.868;2023-02-11T13:56:22;6.85;;;2.40;;
68398;SDS011;56258;52.196;13.868;2023-02-11T13:58:56;7.30;;;2.47;;
68398;SDS011;56258;52.196;13.868;2023-02-11T14:04:32;7.15;;;2.40;;
68398;SDS011;56258;52.196;13.868;2023-02-11T14:07:25;7.30;;;2.72;;
68398;SDS011;56258;52.196;13.868;2023-02-11T14:16:07;7.63;;;2.30;;
68398;SDS011;56258;52.196;13.868;2023-02-11T14:21:11;7.55;;;2.20;;
68398;SDS011;56258;52.196;13.868;2023-02-11T14:23:41;6.43;;;2.20;;
68398;SDS011;56258;52.196;13.868;2023-02-11T14:28:47;5.60;;;1.90;;
68398;SDS011;56258;52.196;13.868;2023-02-11T14:43:09;6.27;;;2.13;;
68398;SDS011;56258;52.196;13.868;2023-02-11T14:45:44;6.53;;;2.00;;
68398;SDS011;56258;52.196;13.868;2023-02-11T14:48:17;7.00;;;2.38;;
68398;SDS011;56258;52.196;13.868;2023-02-11T14:50:48;6.82;;;1.88;;
68398;SDS011;56258;52.196;13.868;2023-02-11T14:53:21;7.28;;;1.85;;
68398;SDS011;56258;52.196;13.868;2023-02-11T14:55:50;6.20;;;1.90;;
68398;SDS011;56258;52.196;13.868;2023-02-11T14:58:23;5.75;;;1.90;;
68398;SDS011;56258;52.196;13.868;2023-02-11T15:01:00;8.23;;;2.60;;
68398;SDS011;56258;52.196;13.868;2023-02-11T15:03:36;6.05;;;1.92;;
68398;SDS011;56258;52.196;13.868;2023-02-11T15:08:50;8.57;;;1.90;;
68398;SDS011;56258;52.196;13.868;2023-02-11T15:11:20;8.05;;;2.28;;
68398;SDS011;56258;52.196;13.868;2023-02-11T15:13:49;8.52;;;1.90;;
68398;SDS011;56258;52.196;13.868;2023-02-11T15:16:24;7.63;;;1.70;;
68398;SDS011;56258;52.196;13.868;2023-02-11T15:18:53;8.95;;;2.08;;
68398;SDS011;56258;52.196;13.868;2023-02-11T15:21:27;7.40;;;1.77;;
68398;SDS011;56258;52.196;13.868;2023-02-11T15:24:02;6.80;;;1.98;;
68398;SDS011;56258;52.196;13.868;2023-02-11T15:26:32;7.00;;;1.73;;
68398;SDS011;56258;52.196;13.868;2023-02-11T15:28:58;6.53;;;1.70;;
68398;SDS011;56258;52.196;13.868;2023-02-11T15:31:26;6.93;;;1.77;;
68398;SDS011;56258;52.196;13.868;2023-02-11T15:33:53;6.37;;;1.73;;
68398;SDS011;56258;52.196;13.868;2023-02-11T15:36:21;5.97;;;1.48;;
68398;SDS011;56258;52.196;13.868;2023-02-11T15:41:43;6.40;;;1.77;;
68398;SDS011;56258;52.196;13.868;2023-02-11T15:44:29;11.20;;;1.70;;
68398;SDS011;56258;52.196;13.868;2023-02-11T15:46:57;4.80;;;1.10;;
68398;SDS011;56258;52.196;13.868;2023-02-11T15:49:25;6.20;;;1.63;;
68398;SDS011;56258;52.196;13.868;2023-02-11T15:51:52;6.13;;;1.40;;
68398;SDS011;56258;52.196;13.868;2023-02-11T15:54:23;6.38;;;1.40;;
68398;SDS011;56258;52.196;13.868;2023-02-11T15:56:53;6.25;;;1.40;;
68398;SDS011;56258;52.196;13.868;2023-02-11T15:59:31;5.43;;;1.30;;
68398;SDS011;56258;52.196;13.868;2023-02-11T16:04:52;6.32;;;1.40;;
68398;SDS011;56258;52.196;13.868;2023-02-11T16:07:37;7.57;;;1.55;;
68398;SDS011;56258;52.196;13.868;2023-02-11T16:10:52;6.70;;;1.30;;
68398;SDS011;56258;52.196;13.868;2023-02-11T16:18:04;6.38;;;1.30;;
68398;SDS011;56258;52.196;13.868;2023-02-11T16:20:45;7.57;;;1.48;;
68398;SDS011;56258;52.196;13.868;2023-02-11T16:23:17;5.38;;;1.50;;
68398;SDS011;56258;52.196;13.868;2023-02-11T16:25:49;5.67;;;1.33;;
68398;SDS011;56258;52.196;13.868;2023-02-11T16:28:20;4.85;;;1.13;;
68398;SDS011;56258;52.196;13.868;2023-02-11T16:30:50;5.30;;;1.30;;
68398;SDS011;56258;52.196;13.868;2023-02-11T16:33:19;5.35;;;1.40;;
68398;SDS011;56258;52.196;13.868;2023-02-11T16:35:46;4.53;;;1.10;;
68398;SDS011;56258;52.196;13.868;2023-02-11T16:38:14;4.80;;;1.13;;
68398;SDS011;56258;52.196;13.868;2023-02-11T16:40:42;5.78;;;1.20;;
68398;SDS011;56258;52.196;13.868;2023-02-11T16:43:11;6.03;;;1.45;;
68398;SDS011;56258;52.196;13.868;2023-02-11T16:45:37;6.15;;;1.00;;
68398;SDS011;56258;52.196;13.868;2023-02-11T16:48:05;6.53;;;1.55;;
68398;SDS011;56258;52.196;13.868;2023-02-11T16:50:34;6.47;;;1.37;;
68398;SDS011;56258;52.196;13.868;2023-02-11T16:53:00;8.20;;;1.27;;
68398;SDS011;56258;52.196;13.868;2023-02-11T16:55:32;4.88;;;0.98;;
68398;SDS011;56258;52.196;13.868;2023-02-11T16:58:00;5.90;;;1.08;;
68398;SDS011;56258;52.196;13.868;2023-02-11T17:00:27;6.10;;;1.13;;
68398;SDS011;56258;52.196;13.868;2023-02-11T17:02:53;5.17;;;1.00;;
68398;SDS011;56258;52.196;13.868;2023-02-11T17:05:21;6.07;;;1.20;;
68398;SDS011;56258;52.196;13.868;2023-02-11T17:07:50;4.78;;;1.00;;
68398;SDS011;56258;52.196;13.868;2023-02-11T17:10:23;4.75;;;1.13;;
68398;SDS011;56258;52.196;13.868;2023-02-11T17:12:50;5.22;;;1.05;;
68398;SDS011;56258;52.196;13.868;2023-02-11T17:15:18;3.97;;;0.70;;
68398;SDS011;56258;52.196;13.868;2023-02-11T17:17:45;4.40;;;0.90;;